Terminal Aerodrome Forecast
Issued by NWS

Home | Current Version | Previous Version | Graphics & Text | Print | Product List | Glossary Off
Versions: 1 2 3 4 5 6 7 8 9 10 11 12 13 14 15 16 17 18 19 20

000
FTUS43 KGRB 192340
TAFRHI
TAF
KRHI 192340Z 2000/2024 15007KT P6SM SCT200
     FM201000 15008KT 6SM BR BKN010
     FM201200 15010G17KT P6SM BKN015
      TEMPO 2012/2015 -SHRA
     FM201500 17010G16KT 6SM -SHRA BR OVC020=

USA.gov is the U.S. government's official web portal to all federal, state and local government web resources and services.